Time;durP1;ratioP1;P1;durP2;ratioP2;P2;SDS_P1;SDS_P2;PMS_P1;PMS_P2;Temp;Humidity;BMP_temperature;BMP_pressure;BME280_temperature;BME280_humidity;BME280_pressure;Samples;Min_cycle;Max_cycle;Signal;HPM_P1;HPM_P2
2021/09/22 00:00:24;;;;;;;4.10;2.50;;;;;;;;;;5072244;28;20089;-69
2021/09/22 00:02:50;;;;;;;3.85;2.38;;;;;;;;;;5068314;28;20041;-68
2021/09/22 00:05:16;;;;;;;4.28;2.60;;;;;;;;;;5064536;28;20533;-68
2021/09/22 00:07:41;;;;;;;4.22;2.40;;;;;;;;;;5075988;28;20056;-68
2021/09/22 00:10:11;;;;;;;3.92;2.30;;;;;;;;;;5064673;28;20391;-68
2021/09/22 00:12:37;;;;;;;3.65;2.58;;;;;;;;;;5077082;28;20066;-69
2021/09/22 00:15:05;;;;;;;6.38;3.10;;;;;;;;;;5074482;28;20499;-68
2021/09/22 00:17:31;;;;;;;5.95;2.75;;;;;;;;;;5064996;28;20053;-68
2021/09/22 00:19:56;;;;;;;6.25;3.15;;;;;;;;;;5060696;28;20083;-68
2021/09/22 00:22:23;;;;;;;4.72;2.70;;;;;;;;;;5066962;28;20021;-69
2021/09/22 00:24:49;;;;;;;5.18;2.58;;;;;;;;;;5070490;28;20363;-68
2021/09/22 00:27:14;;;;;;;5.72;2.63;;;;;;;;;;5069241;28;20032;-69
2021/09/22 00:29:41;;;;;;;3.35;2.38;;;;;;;;;;5060161;28;20055;-68
2021/09/22 00:32:06;;;;;;;7.72;2.88;;;;;;;;;;5067992;28;20380;-68
2021/09/22 00:34:32;;;;;;;5.88;2.85;;;;;;;;;;5065156;28;20036;-68
2021/09/22 00:36:57;;;;;;;5.25;2.60;;;;;;;;;;5064159;28;20445;-68
2021/09/22 00:39:22;;;;;;;5.05;2.95;;;;;;;;;;5065839;28;20030;-69
2021/09/22 00:41:48;;;;;;;4.65;2.92;;;;;;;;;;5071533;28;20424;-68
2021/09/22 00:44:14;;;;;;;4.95;2.65;;;;;;;;;;5056750;28;20032;-68
2021/09/22 00:46:40;;;;;;;5.05;2.90;;;;;;;;;;5059734;28;20563;-68
2021/09/22 00:49:05;;;;;;;5.05;2.75;;;;;;;;;;5068827;28;20035;-68
2021/09/22 00:51:31;;;;;;;5.57;3.40;;;;;;;;;;5058208;28;20130;-68
2021/09/22 00:53:57;;;;;;;4.30;3.03;;;;;;;;;;5038634;28;20028;-68
2021/09/22 00:56:23;;;;;;;5.97;2.95;;;;;;;;;;5070404;28;20040;-68
2021/09/22 00:58:49;;;;;;;6.32;3.45;;;;;;;;;;5070457;28;20026;-68
2021/09/22 01:01:14;;;;;;;5.60;3.42;;;;;;;;;;5071334;28;20020;-68
2021/09/22 01:03:40;;;;;;;6.30;3.53;;;;;;;;;;5074770;28;20037;-68
2021/09/22 01:06:06;;;;;;;7.10;3.60;;;;;;;;;;5082909;28;20025;-68
2021/09/22 01:08:32;;;;;;;6.18;3.38;;;;;;;;;;5076954;28;20032;-69
2021/09/22 01:10:59;;;;;;;5.28;3.20;;;;;;;;;;5070844;28;20061;-68
2021/09/22 01:13:25;;;;;;;6.00;3.38;;;;;;;;;;5061791;28;20103;-68
2021/09/22 01:15:50;;;;;;;5.28;2.92;;;;;;;;;;5061890;28;20036;-68
2021/09/22 01:18:19;;;;;;;5.18;2.90;;;;;;;;;;5072496;28;20500;-68
2021/09/22 01:20:51;;;;;;;4.53;2.60;;;;;;;;;;5074207;28;20032;-68
2021/09/22 01:23:17;;;;;;;4.20;2.42;;;;;;;;;;5073560;28;20032;-68
2021/09/22 01:25:45;;;;;;;4.82;2.55;;;;;;;;;;5071953;28;20384;-68
2021/09/22 01:28:13;;;;;;;3.60;2.08;;;;;;;;;;5069482;28;20028;-68
2021/09/22 01:30:39;;;;;;;6.72;2.33;;;;;;;;;;5075930;28;20051;-68
2021/09/22 01:33:08;;;;;;;3.83;2.47;;;;;;;;;;5069596;28;20020;-68
2021/09/22 01:35:36;;;;;;;4.28;2.50;;;;;;;;;;5067818;28;20035;-68
2021/09/22 01:38:05;;;;;;;4.30;2.60;;;;;;;;;;5070876;28;20741;-68
2021/09/22 01:40:31;;;;;;;3.83;2.30;;;;;;;;;;5054198;28;20064;-68
2021/09/22 01:42:56;;;;;;;4.13;2.58;;;;;;;;;;5065982;28;20021;-68
2021/09/22 01:45:22;;;;;;;3.55;2.10;;;;;;;;;;5068864;28;20295;-68
2021/09/22 01:47:48;;;;;;;4.80;2.40;;;;;;;;;;5072124;28;20103;-68
2021/09/22 01:50:17;;;;;;;3.92;2.20;;;;;;;;;;5068549;28;20029;-68
2021/09/22 01:52:44;;;;;;;4.60;2.05;;;;;;;;;;5058902;28;20548;-69
2021/09/22 01:55:13;;;;;;;3.70;2.22;;;;;;;;;;5058717;28;20029;-68
2021/09/22 01:57:38;;;;;;;4.53;1.95;;;;;;;;;;5059737;28;20100;-68
2021/09/22 02:00:06;;;;;;;4.47;2.45;;;;;;;;;;5059255;28;20171;-68
2021/09/22 02:02:32;;;;;;;4.15;2.70;;;;;;;;;;5081551;28;20119;-68
2021/09/22 02:04:59;;;;;;;4.95;2.50;;;;;;;;;;5073392;28;20103;-68
2021/09/22 02:07:25;;;;;;;4.55;2.72;;;;;;;;;;5055729;28;20024;-68
2021/09/22 02:09:50;;;;;;;4.25;2.35;;;;;;;;;;5074116;28;20048;-68
2021/09/22 02:12:16;;;;;;;4.80;2.67;;;;;;;;;;5097195;28;20087;-68
2021/09/22 02:14:41;;;;;;;3.88;2.45;;;;;;;;;;5058572;28;20556;-68
2021/09/22 02:17:07;;;;;;;8.60;2.60;;;;;;;;;;5076021;28;20020;-68
2021/09/22 02:19:32;;;;;;;3.85;2.30;;;;;;;;;;5073197;28;20082;-69
2021/09/22 02:21:58;;;;;;;4.53;2.42;;;;;;;;;;5067028;28;20461;-68
2021/09/22 02:24:24;;;;;;;4.38;2.25;;;;;;;;;;5070861;28;20074;-69
2021/09/22 02:26:51;;;;;;;5.20;2.45;;;;;;;;;;5075430;28;20369;-68
2021/09/22 02:29:21;;;;;;;4.13;2.50;;;;;;;;;;5064839;28;20491;-68
2021/09/22 02:31:47;;;;;;;4.40;2.42;;;;;;;;;;5069332;28;20079;-68
2021/09/22 02:34:14;;;;;;;4.07;2.15;;;;;;;;;;5066009;28;20116;-68
2021/09/22 02:36:39;;;;;;;4.60;2.80;;;;;;;;;;5061674;28;20056;-68
2021/09/22 02:39:05;;;;;;;4.18;2.60;;;;;;;;;;5065040;28;20083;-68
2021/09/22 02:41:31;;;;;;;4.78;3.00;;;;;;;;;;5061962;28;20108;-68
2021/09/22 02:43:57;;;;;;;4.70;2.45;;;;;;;;;;5063236;28;20108;-68
2021/09/22 02:46:23;;;;;;;4.03;2.25;;;;;;;;;;5073489;28;20020;-68
2021/09/22 02:48:49;;;;;;;3.35;2.20;;;;;;;;;;5078129;28;20020;-68
2021/09/22 02:51:14;;;;;;;8.35;2.55;;;;;;;;;;5057468;28;20104;-68
2021/09/22 02:53:40;;;;;;;4.95;2.35;;;;;;;;;;5074671;28;20028;-68
2021/09/22 02:56:07;;;;;;;3.40;2.10;;;;;;;;;;5072529;28;20052;-69
2021/09/22 02:58:32;;;;;;;4.88;2.47;;;;;;;;;;5078443;28;20024;-68
2021/09/22 03:00:59;;;;;;;4.20;2.50;;;;;;;;;;5063081;28;20045;-68
2021/09/22 03:03:25;;;;;;;3.40;2.28;;;;;;;;;;5073715;28;20484;-68
2021/09/22 03:05:50;;;;;;;3.85;2.15;;;;;;;;;;5075963;28;20040;-68
2021/09/22 03:08:16;;;;;;;2.67;1.80;;;;;;;;;;5077339;28;20449;-68
2021/09/22 03:10:41;;;;;;;3.63;2.15;;;;;;;;;;5075754;28;20024;-68
2021/09/22 03:13:07;;;;;;;3.08;2.20;;;;;;;;;;5064532;28;20025;-68
2021/09/22 03:15:32;;;;;;;4.10;2.30;;;;;;;;;;5064569;28;20048;-68
2021/09/22 03:17:58;;;;;;;3.25;2.08;;;;;;;;;;5079564;28;20318;-68
2021/09/22 03:20:23;;;;;;;3.30;1.83;;;;;;;;;;5056993;28;20170;-68
2021/09/22 03:22:49;;;;;;;3.78;1.90;;;;;;;;;;5070335;28;20103;-68
2021/09/22 03:25:15;;;;;;;3.67;2.03;;;;;;;;;;5077584;28;20020;-68
2021/09/22 03:27:40;;;;;;;4.20;2.17;;;;;;;;;;5056310;28;20057;-68
2021/09/22 03:30:09;;;;;;;3.85;1.95;;;;;;;;;;5081105;28;20032;-68
2021/09/22 03:32:34;;;;;;;3.10;1.95;;;;;;;;;;5070767;28;20476;-69
2021/09/22 03:35:00;;;;;;;3.92;2.40;;;;;;;;;;5072611;28;20103;-68
2021/09/22 03:37:25;;;;;;;3.45;1.98;;;;;;;;;;5063389;28;20043;-68
2021/09/22 03:39:51;;;;;;;3.03;2.10;;;;;;;;;;5073480;28;20031;-69
2021/09/22 03:42:16;;;;;;;3.97;2.50;;;;;;;;;;5071690;28;20025;-68
2021/09/22 03:44:42;;;;;;;3.67;2.30;;;;;;;;;;5074951;28;20511;-68
2021/09/22 03:47:07;;;;;;;4.20;2.15;;;;;;;;;;5077870;28;20430;-68
2021/09/22 03:49:33;;;;;;;3.65;2.25;;;;;;;;;;5063703;28;20514;-68
2021/09/22 03:51:58;;;;;;;3.72;2.03;;;;;;;;;;5070055;28;20035;-68
2021/09/22 03:54:24;;;;;;;3.55;2.10;;;;;;;;;;5073423;28;20028;-68
2021/09/22 03:56:49;;;;;;;3.50;2.13;;;;;;;;;;5067461;28;20047;-68
2021/09/22 03:59:15;;;;;;;3.80;2.08;;;;;;;;;;5074471;28;20111;-68
2021/09/22 04:01:41;;;;;;;3.50;2.00;;;;;;;;;;5046243;28;20079;-69
2021/09/22 04:04:06;;;;;;;3.47;1.95;;;;;;;;;;5069539;28;20343;-69
2021/09/22 04:06:32;;;;;;;3.67;2.00;;;;;;;;;;5078449;28;20016;-69
2021/09/22 04:08:59;;;;;;;5.68;2.20;;;;;;;;;;5073933;28;20116;-68
2021/09/22 04:11:25;;;;;;;4.70;2.22;;;;;;;;;;5073487;28;20035;-68
2021/09/22 04:13:50;;;;;;;4.93;2.40;;;;;;;;;;5066253;28;20029;-68
2021/09/22 04:16:16;;;;;;;5.20;2.40;;;;;;;;;;5078638;28;20035;-68
2021/09/22 04:18:41;;;;;;;3.42;2.28;;;;;;;;;;5054891;28;20149;-68
2021/09/22 04:21:07;;;;;;;4.63;2.17;;;;;;;;;;5075504;28;20453;-68
2021/09/22 04:23:33;;;;;;;3.53;1.98;;;;;;;;;;5064080;28;20469;-68
2021/09/22 04:25:58;;;;;;;3.50;1.95;;;;;;;;;;5068529;28;20031;-68
2021/09/22 04:28:24;;;;;;;4.18;2.22;;;;;;;;;;5071488;28;20537;-68
2021/09/22 04:30:51;;;;;;;3.05;1.85;;;;;;;;;;5072639;28;20016;-68
2021/09/22 04:33:16;;;;;;;3.45;2.10;;;;;;;;;;5065578;28;20040;-68
2021/09/22 04:35:42;;;;;;;5.30;2.00;;;;;;;;;;5060826;28;20033;-68
2021/09/22 04:38:08;;;;;;;3.40;2.00;;;;;;;;;;5052059;28;20492;-68
2021/09/22 04:40:34;;;;;;;3.53;2.20;;;;;;;;;;5066798;28;20115;-68
2021/09/22 04:43:00;;;;;;;3.65;2.10;;;;;;;;;;5071056;28;20158;-68
2021/09/22 04:45:26;;;;;;;6.53;2.65;;;;;;;;;;5069193;28;20066;-68
2021/09/22 04:47:53;;;;;;;3.25;2.08;;;;;;;;;;5069506;28;20495;-68
2021/09/22 04:50:19;;;;;;;3.55;1.98;;;;;;;;;;5053623;28;20032;-68
2021/09/22 04:52:44;;;;;;;3.15;1.92;;;;;;;;;;5060766;28;20404;-68
2021/09/22 04:55:10;;;;;;;3.63;2.10;;;;;;;;;;5074660;28;20028;-68
2021/09/22 04:57:35;;;;;;;3.22;1.83;;;;;;;;;;5059676;28;20032;-68
2021/09/22 05:00:01;;;;;;;4.18;2.47;;;;;;;;;;5052203;28;20036;-68
2021/09/22 05:02:26;;;;;;;3.60;2.20;;;;;;;;;;5052048;28;20048;-68
2021/09/22 05:04:52;;;;;;;3.60;2.20;;;;;;;;;;5056633;28;20384;-68
2021/09/22 05:07:17;;;;;;;3.58;2.60;;;;;;;;;;5063131;28;20028;-68
2021/09/22 05:09:43;;;;;;;3.50;2.17;;;;;;;;;;5077850;28;20024;-68
2021/09/22 05:12:08;;;;;;;3.78;2.20;;;;;;;;;;5054889;28;20029;-68
2021/09/22 05:14:33;;;;;;;3.92;2.00;;;;;;;;;;5080933;28;20499;-68
2021/09/22 05:16:59;;;;;;;4.65;2.00;;;;;;;;;;5064557;28;20028;-68
2021/09/22 05:19:26;;;;;;;4.10;1.90;;;;;;;;;;5049929;28;20021;-68
2021/09/22 05:21:52;;;;;;;4.25;2.03;;;;;;;;;;5063394;28;20047;-68
2021/09/22 05:24:17;;;;;;;3.92;1.95;;;;;;;;;;5062786;28;20064;-68
2021/09/22 05:26:43;;;;;;;3.78;2.13;;;;;;;;;;5071657;28;20447;-68
2021/09/22 05:29:10;;;;;;;4.30;2.20;;;;;;;;;;5063566;28;20052;-68
2021/09/22 05:31:36;;;;;;;3.33;2.10;;;;;;;;;;5070423;28;20063;-68
2021/09/22 05:34:02;;;;;;;4.80;2.13;;;;;;;;;;5050305;28;20500;-68
2021/09/22 05:36:27;;;;;;;3.55;2.05;;;;;;;;;;5060436;28;20483;-68
2021/09/22 05:38:52;;;;;;;3.92;2.38;;;;;;;;;;5068193;28;20057;-68
2021/09/22 05:41:18;;;;;;;3.38;2.00;;;;;;;;;;5079741;28;20469;-68
2021/09/22 05:43:44;;;;;;;3.45;2.03;;;;;;;;;;5058803;28;20078;-68
2021/09/22 05:46:09;;;;;;;5.95;1.80;;;;;;;;;;5070216;28;20408;-68
2021/09/22 05:48:35;;;;;;;3.08;2.20;;;;;;;;;;5070983;28;20035;-68
2021/09/22 05:51:00;;;;;;;3.28;2.25;;;;;;;;;;5051914;28;20473;-68
2021/09/22 05:53:26;;;;;;;3.00;2.10;;;;;;;;;;5069557;28;20467;-68
2021/09/22 05:55:51;;;;;;;4.07;2.20;;;;;;;;;;5069129;28;20428;-68
2021/09/22 05:58:19;;;;;;;4.85;2.78;;;;;;;;;;5081998;28;20103;-68
2021/09/22 06:00:46;;;;;;;5.78;3.00;;;;;;;;;;5079278;28;20028;-71
2021/09/22 06:03:12;;;;;;;6.80;2.80;;;;;;;;;;5074442;28;20067;-68
2021/09/22 06:05:39;;;;;;;5.70;2.70;;;;;;;;;;5067954;28;20091;-68
2021/09/22 06:08:08;;;;;;;5.47;2.42;;;;;;;;;;5061644;28;20376;-68
2021/09/22 06:10:35;;;;;;;6.18;2.75;;;;;;;;;;5076132;28;20017;-68
2021/09/22 06:13:03;;;;;;;4.85;2.53;;;;;;;;;;5086217;28;20036;-68
2021/09/22 06:15:29;;;;;;;4.47;2.47;;;;;;;;;;5086651;28;20043;-68
2021/09/22 06:17:54;;;;;;;4.63;2.75;;;;;;;;;;5066912;28;20025;-69
2021/09/22 06:20:20;;;;;;;7.38;2.60;;;;;;;;;;5077440;28;20033;-70
2021/09/22 06:22:45;;;;;;;4.60;2.70;;;;;;;;;;5075315;28;20332;-67
2021/09/22 06:25:13;;;;;;;5.07;2.88;;;;;;;;;;5075555;28;20032;-69
2021/09/22 06:27:39;;;;;;;3.85;2.53;;;;;;;;;;5076162;28;20073;-69
2021/09/22 06:30:06;;;;;;;3.63;2.28;;;;;;;;;;5080573;28;20085;-69
2021/09/22 06:32:31;;;;;;;3.88;2.60;;;;;;;;;;5068670;28;20020;-69
2021/09/22 06:34:56;;;;;;;4.78;2.80;;;;;;;;;;5074512;28;20660;-69
2021/09/22 06:37:22;;;;;;;8.88;2.72;;;;;;;;;;5088828;28;20016;-70
2021/09/22 06:39:47;;;;;;;5.60;2.58;;;;;;;;;;5078732;28;20020;-70
2021/09/22 06:42:13;;;;;;;5.95;2.47;;;;;;;;;;5079640;28;20095;-70
2021/09/22 06:44:39;;;;;;;5.03;2.50;;;;;;;;;;5069015;28;20123;-69
2021/09/22 06:47:04;;;;;;;4.25;2.40;;;;;;;;;;5069800;28;20135;-69
2021/09/22 06:49:30;;;;;;;6.00;2.33;;;;;;;;;;5070307;28;20033;-70
2021/09/22 06:51:56;;;;;;;3.75;2.17;;;;;;;;;;5074283;28;20511;-70
2021/09/22 06:54:22;;;;;;;4.45;2.30;;;;;;;;;;5078017;28;20027;-69
2021/09/22 06:56:48;;;;;;;5.43;2.22;;;;;;;;;;5074255;28;20016;-70
2021/09/22 06:59:15;;;;;;;3.60;2.33;;;;;;;;;;5084632;28;20036;-71
2021/09/22 07:01:41;;;;;;;5.60;2.30;;;;;;;;;;5080625;28;20046;-72
2021/09/22 07:04:07;;;;;;;9.85;2.40;;;;;;;;;;5067939;28;20036;-69
2021/09/22 07:06:33;;;;;;;4.65;2.30;;;;;;;;;;5074418;28;20024;-71
2021/09/22 07:08:59;;;;;;;6.30;2.63;;;;;;;;;;5074489;28;20028;-68
2021/09/22 07:11:26;;;;;;;3.75;2.40;;;;;;;;;;5090948;28;20035;-71
2021/09/22 07:13:51;;;;;;;5.55;2.78;;;;;;;;;;5072850;28;20835;-69
2021/09/22 07:16:17;;;;;;;7.22;2.85;;;;;;;;;;5081288;28;20036;-70
2021/09/22 07:18:44;;;;;;;3.58;2.20;;;;;;;;;;5086687;28;20243;-69
2021/09/22 07:21:12;;;;;;;4.25;2.53;;;;;;;;;;5063119;28;20028;-69
2021/09/22 07:23:38;;;;;;;4.57;2.53;;;;;;;;;;5076188;28;20025;-69
2021/09/22 07:26:06;;;;;;;4.00;2.42;;;;;;;;;;5078248;28;20050;-69
2021/09/22 07:28:31;;;;;;;5.47;2.63;;;;;;;;;;5095432;28;20027;-71
2021/09/22 07:30:58;;;;;;;4.20;2.40;;;;;;;;;;5073353;28;20025;-68
2021/09/22 07:33:24;;;;;;;4.03;2.47;;;;;;;;;;5077137;28;20021;-69
2021/09/22 07:35:50;;;;;;;5.82;2.88;;;;;;;;;;5076935;28;20047;-68
2021/09/22 07:38:16;;;;;;;3.75;2.10;;;;;;;;;;5074771;28;20148;-68
2021/09/22 07:40:43;;;;;;;3.80;2.60;;;;;;;;;;5060139;28;20063;-67
2021/09/22 07:43:08;;;;;;;4.65;2.63;;;;;;;;;;5079744;28;20039;-68
2021/09/22 07:45:35;;;;;;;4.88;2.65;;;;;;;;;;5060607;28;20036;-69
2021/09/22 07:48:01;;;;;;;3.05;2.10;;;;;;;;;;5076328;28;20054;-69
2021/09/22 07:50:27;;;;;;;5.80;2.50;;;;;;;;;;5070879;28;20533;-69
2021/09/22 07:52:52;;;;;;;5.50;2.10;;;;;;;;;;5073287;28;20017;-69
2021/09/22 07:55:19;;;;;;;4.93;2.35;;;;;;;;;;5073370;28;20483;-69
2021/09/22 07:57:45;;;;;;;5.65;2.30;;;;;;;;;;5077687;28;20629;-69
2021/09/22 08:00:12;;;;;;;3.67;2.00;;;;;;;;;;5076933;28;20051;-69
2021/09/22 08:02:38;;;;;;;3.08;2.10;;;;;;;;;;5072397;28;20051;-68
2021/09/22 08:05:04;;;;;;;4.03;2.30;;;;;;;;;;5087385;28;20012;-69
2021/09/22 08:07:30;;;;;;;3.50;2.10;;;;;;;;;;5078538;28;20032;-68
2021/09/22 08:09:56;;;;;;;3.00;2.25;;;;;;;;;;5074432;28;20024;-70
2021/09/22 08:12:22;;;;;;;3.53;2.38;;;;;;;;;;5084724;28;20035;-68
2021/09/22 08:14:47;;;;;;;3.85;2.38;;;;;;;;;;5080815;28;20358;-71
2021/09/22 08:17:14;;;;;;;4.25;2.53;;;;;;;;;;5083432;28;20024;-71
2021/09/22 08:19:41;;;;;;;7.05;2.45;;;;;;;;;;5074503;28;20414;-68
2021/09/22 08:22:08;;;;;;;6.25;2.75;;;;;;;;;;5076911;28;20028;-68
2021/09/22 08:24:33;;;;;;;2.97;2.05;;;;;;;;;;5072380;28;20357;-69
2021/09/22 08:27:00;;;;;;;4.78;2.60;;;;;;;;;;5079162;28;20054;-67
2021/09/22 08:29:26;;;;;;;4.30;2.45;;;;;;;;;;5072622;28;20463;-68
2021/09/22 08:31:53;;;;;;;4.07;2.20;;;;;;;;;;5075679;28;20041;-69
2021/09/22 08:34:20;;;;;;;4.78;2.15;;;;;;;;;;5072231;28;20028;-68
2021/09/22 08:36:46;;;;;;;2.80;1.98;;;;;;;;;;5082415;28;20023;-68
2021/09/22 08:39:13;;;;;;;3.38;2.00;;;;;;;;;;5079292;28;20032;-68
2021/09/22 08:41:40;;;;;;;3.70;2.45;;;;;;;;;;5080253;28;20047;-68
2021/09/22 08:44:07;;;;;;;4.07;2.15;;;;;;;;;;5082226;28;20043;-68
2021/09/22 08:46:38;;;;;;;3.15;2.05;;;;;;;;;;5087229;28;20028;-68
2021/09/22 08:49:05;;;;;;;8.27;2.00;;;;;;;;;;5086929;28;20103;-68
2021/09/22 08:51:31;;;;;;;2.75;1.90;;;;;;;;;;5085778;28;20035;-67
2021/09/22 08:53:58;;;;;;;6.65;2.00;;;;;;;;;;5071864;28;20504;-68
2021/09/22 08:56:24;;;;;;;2.72;1.77;;;;;;;;;;5073099;28;20025;-68
2021/09/22 08:58:53;;;;;;;2.95;1.92;;;;;;;;;;5077760;28;20036;-67
2021/09/22 09:01:21;;;;;;;3.55;2.05;;;;;;;;;;5087733;28;20058;-68
2021/09/22 09:03:47;;;;;;;3.13;2.17;;;;;;;;;;5088567;28;20032;-68
2021/09/22 09:06:21;;;;;;;3.70;2.38;;;;;;;;;;5071498;28;20099;-68
2021/09/22 09:08:49;;;;;;;3.38;2.10;;;;;;;;;;5073964;28;20048;-68
2021/09/22 09:11:15;;;;;;;3.90;1.70;;;;;;;;;;5073093;28;20100;-67
2021/09/22 09:13:52;;;;;;;2.78;1.60;;;;;;;;;;5069735;28;20020;-68
2021/09/22 09:16:19;;;;;;;3.00;1.65;;;;;;;;;;5077649;28;20071;-68
2021/09/22 09:18:55;;;;;;;4.57;1.70;;;;;;;;;;5075631;28;20032;-67
2021/09/22 09:21:24;;;;;;;3.42;1.80;;;;;;;;;;5056171;28;20028;-67
2021/09/22 09:23:59;;;;;;;2.45;1.67;;;;;;;;;;5073358;28;20020;-68
2021/09/22 09:26:27;;;;;;;2.85;1.60;;;;;;;;;;5075084;28;20032;-67
2021/09/22 09:28:55;;;;;;;3.97;1.90;;;;;;;;;;5072905;28;20754;-67
2021/09/22 09:31:21;;;;;;;2.70;1.70;;;;;;;;;;5078604;28;20038;-68
2021/09/22 09:33:50;;;;;;;2.92;1.80;;;;;;;;;;5081436;28;20074;-68
2021/09/22 09:36:25;;;;;;;3.40;2.10;;;;;;;;;;5080448;28;20029;-68
2021/09/22 09:39:11;;;;;;;3.22;2.00;;;;;;;;;;5073020;28;20578;-69
2021/09/22 09:41:49;;;;;;;3.80;2.20;;;;;;;;;;5076107;28;20375;-68
2021/09/22 09:44:18;;;;;;;3.33;1.95;;;;;;;;;;5051374;28;20111;-68
2021/09/22 09:46:44;;;;;;;3.25;2.20;;;;;;;;;;5068878;28;20518;-68
2021/09/22 09:49:12;;;;;;;3.33;1.90;;;;;;;;;;5084015;28;20016;-68
2021/09/22 09:51:50;;;;;;;2.95;2.05;;;;;;;;;;5083008;28;20024;-68
2021/09/22 09:54:23;;;;;;;3.35;1.90;;;;;;;;;;5069099;28;20081;-68
2021/09/22 09:56:51;;;;;;;5.63;2.00;;;;;;;;;;5080231;28;20387;-68
2021/09/22 09:59:19;;;;;;;4.10;1.70;;;;;;;;;;5069068;28;20074;-68
2021/09/22 10:01:50;;;;;;;2.03;1.58;;;;;;;;;;5068804;28;20036;-68
2021/09/22 10:04:18;;;;;;;1.77;1.30;;;;;;;;;;5068769;28;20024;-68
2021/09/22 10:06:44;;;;;;;3.22;1.50;;;;;;;;;;5087121;28;20065;-68
2021/09/22 10:09:11;;;;;;;2.63;1.65;;;;;;;;;;5086811;28;20729;-69
2021/09/22 10:11:38;;;;;;;3.53;1.80;;;;;;;;;;5051154;28;20085;-69
2021/09/22 10:14:06;;;;;;;2.53;1.55;;;;;;;;;;5068659;28;20050;-69
2021/09/22 10:16:33;;;;;;;2.40;1.73;;;;;;;;;;5071743;28;20036;-69
2021/09/22 10:19:00;;;;;;;2.88;1.80;;;;;;;;;;5071136;28;20039;-68
2021/09/22 10:21:26;;;;;;;4.38;2.00;;;;;;;;;;5068721;28;20472;-68
2021/09/22 10:23:55;;;;;;;4.35;2.13;;;;;;;;;;5083062;28;20028;-69
2021/09/22 10:26:21;;;;;;;3.35;2.30;;;;;;;;;;5090934;28;20055;-69
2021/09/22 10:28:48;;;;;;;9.77;3.10;;;;;;;;;;5092787;28;20035;-69
2021/09/22 10:31:14;;;;;;;4.68;3.08;;;;;;;;;;5081144;28;20526;-69
2021/09/22 10:33:43;;;;;;;4.28;2.90;;;;;;;;;;5083312;28;20050;-69
2021/09/22 10:36:09;;;;;;;6.60;3.03;;;;;;;;;;5092573;28;20034;-69
2021/09/22 10:38:40;;;;;;;4.82;2.60;;;;;;;;;;5092587;28;20024;-69
2021/09/22 10:41:07;;;;;;;6.20;2.63;;;;;;;;;;5082907;28;20112;-68
2021/09/22 10:43:45;;;;;;;4.25;2.28;;;;;;;;;;5081034;28;20043;-69
2021/09/22 10:46:17;;;;;;;3.70;2.33;;;;;;;;;;5073490;28;20126;-69
2021/09/22 10:48:54;;;;;;;5.28;3.00;;;;;;;;;;5073542;28;20044;-69
2021/09/22 10:51:31;;;;;;;4.63;2.90;;;;;;;;;;5073384;28;20023;-69
2021/09/22 10:54:07;;;;;;;4.75;3.20;;;;;;;;;;5073190;28;20029;-69
2021/09/22 10:56:34;;;;;;;4.90;3.45;;;;;;;;;;5085451;28;20040;-68
2021/09/22 10:59:02;;;;;;;5.47;3.50;;;;;;;;;;5093299;28;20468;-69
2021/09/22 11:01:34;;;;;;;6.57;3.55;;;;;;;;;;5093393;28;20027;-69
2021/09/22 11:04:03;;;;;;;4.78;3.47;;;;;;;;;;5093620;28;20051;-68
2021/09/22 11:06:44;;;;;;;4.85;3.50;;;;;;;;;;5091860;28;20110;-68
2021/09/22 11:09:23;;;;;;;4.82;3.20;;;;;;;;;;5081392;28;20519;-69
2021/09/22 11:11:54;;;;;;;5.78;3.60;;;;;;;;;;5087299;28;20110;-69
2021/09/22 11:14:39;;;;;;;4.82;3.47;;;;;;;;;;5092963;28;20530;-69
2021/09/22 11:17:29;;;;;;;4.65;2.80;;;;;;;;;;5093079;28;20061;-69
2021/09/22 11:20:00;;;;;;;4.10;3.08;;;;;;;;;;5081537;28;20031;-69
2021/09/22 11:22:31;;;;;;;4.20;3.22;;;;;;;;;;5073304;28;20017;-69
2021/09/22 11:24:59;;;;;;;4.70;3.15;;;;;;;;;;5072707;28;20056;-69
2021/09/22 11:27:25;;;;;;;5.47;2.90;;;;;;;;;;5072965;28;20024;-72
2021/09/22 11:30:02;;;;;;;4.60;3.25;;;;;;;;;;5075091;28;20363;-69
2021/09/22 11:32:41;;;;;;;5.40;3.20;;;;;;;;;;5054919;28;20044;-69
2021/09/22 11:35:16;;;;;;;4.75;3.30;;;;;;;;;;5073040;28;20117;-69
2021/09/22 11:37:56;;;;;;;4.47;3.17;;;;;;;;;;5084099;28;20352;-69
2021/09/22 11:40:33;;;;;;;5.10;3.67;;;;;;;;;;5082041;28;20024;-69
2021/09/22 11:43:11;;;;;;;4.65;3.42;;;;;;;;;;5092750;28;20016;-69
2021/09/22 11:45:57;;;;;;;4.78;3.33;;;;;;;;;;5093092;28;20020;-69
2021/09/22 11:48:37;;;;;;;4.82;3.00;;;;;;;;;;5093012;28;20020;-69
2021/09/22 11:51:09;;;;;;;4.82;3.20;;;;;;;;;;5081956;28;20105;-69
2021/09/22 11:53:37;;;;;;;9.75;3.38;;;;;;;;;;5072589;28;20048;-68
2021/09/22 11:56:04;;;;;;;4.57;3.30;;;;;;;;;;5072414;28;20012;-69
2021/09/22 11:58:33;;;;;;;6.32;3.38;;;;;;;;;;5054650;28;20107;-69
2021/09/22 12:01:02;;;;;;;4.57;3.13;;;;;;;;;;5081074;28;20081;-69
2021/09/22 12:03:30;;;;;;;4.57;3.08;;;;;;;;;;5074397;28;20074;-69
2021/09/22 12:06:15;;;;;;;6.47;3.40;;;;;;;;;;5073499;28;20024;-69
2021/09/22 12:08:43;;;;;;;4.95;2.85;;;;;;;;;;5068647;28;20115;-69
2021/09/22 12:11:10;;;;;;;4.82;3.28;;;;;;;;;;5072069;28;20083;-70
2021/09/22 12:13:50;;;;;;;6.75;3.53;;;;;;;;;;5071930;28;20021;-69
2021/09/22 12:16:21;;;;;;;4.47;3.10;;;;;;;;;;5090902;28;20032;-69
2021/09/22 12:18:55;;;;;;;5.90;3.55;;;;;;;;;;5092228;28;20027;-68
2021/09/22 12:21:26;;;;;;;4.05;3.22;;;;;;;;;;5091590;28;20554;-69
2021/09/22 12:23:52;;;;;;;4.45;3.20;;;;;;;;;;5092467;28;20078;-69
2021/09/22 12:26:20;;;;;;;5.15;3.92;;;;;;;;;;5072337;28;20063;-69
2021/09/22 12:29:04;;;;;;;4.75;3.40;;;;;;;;;;5054941;28;20025;-69
2021/09/22 12:31:37;;;;;;;4.80;3.47;;;;;;;;;;5075650;28;20022;-69
2021/09/22 12:34:02;;;;;;;4.68;3.28;;;;;;;;;;5078373;28;20521;-68
2021/09/22 12:36:28;;;;;;;6.97;3.25;;;;;;;;;;5072070;28;20020;-69
2021/09/22 12:38:54;;;;;;;4.85;3.53;;;;;;;;;;5071546;28;20024;-69
2021/09/22 12:41:22;;;;;;;5.75;3.45;;;;;;;;;;5085068;28;20024;-69
2021/09/22 12:43:58;;;;;;;4.55;3.05;;;;;;;;;;5091644;28;20103;-69
2021/09/22 12:46:23;;;;;;;5.72;3.45;;;;;;;;;;5089224;28;20048;-69
2021/09/22 12:48:49;;;;;;;5.20;3.80;;;;;;;;;;5072922;28;20052;-69
2021/09/22 12:51:29;;;;;;;5.88;3.40;;;;;;;;;;5091465;28;20123;-69
2021/09/22 12:54:05;;;;;;;7.45;4.10;;;;;;;;;;5087547;28;20029;-69
2021/09/22 12:56:31;;;;;;;5.82;3.88;;;;;;;;;;5071723;28;20058;-69
2021/09/22 12:59:26;;;;;;;5.10;3.50;;;;;;;;;;5074181;28;20054;-69
2021/09/22 13:01:53;;;;;;;5.03;3.58;;;;;;;;;;5091763;28;20054;-69
2021/09/22 13:04:27;;;;;;;7.25;3.80;;;;;;;;;;5091630;28;20016;-69
2021/09/22 13:06:57;;;;;;;6.07;3.67;;;;;;;;;;5088651;28;20039;-69
2021/09/22 13:09:34;;;;;;;5.00;3.42;;;;;;;;;;5078360;28;20036;-69
2021/09/22 13:12:00;;;;;;;5.90;3.35;;;;;;;;;;5085113;28;20020;-68
2021/09/22 13:14:35;;;;;;;4.28;3.25;;;;;;;;;;5072413;28;20476;-69
2021/09/22 13:17:01;;;;;;;5.20;3.78;;;;;;;;;;5070547;28;20079;-68
2021/09/22 13:19:28;;;;;;;6.43;3.67;;;;;;;;;;5078417;28;20024;-69
2021/09/22 13:21:56;;;;;;;5.72;3.75;;;;;;;;;;5091276;28;20028;-69
2021/09/22 13:24:24;;;;;;;6.00;4.07;;;;;;;;;;5083466;28;20035;-69
2021/09/22 13:26:54;;;;;;;5.13;3.42;;;;;;;;;;5091491;28;20024;-69
2021/09/22 13:29:20;;;;;;;6.40;3.90;;;;;;;;;;5080353;28;20099;-69
2021/09/22 13:31:52;;;;;;;5.82;3.45;;;;;;;;;;5070413;28;20016;-69
2021/09/22 13:34:18;;;;;;;7.07;3.85;;;;;;;;;;5080070;28;20035;-69
2021/09/22 13:36:45;;;;;;;5.45;3.30;;;;;;;;;;5080686;28;20029;-69
2021/09/22 13:39:12;;;;;;;5.75;4.10;;;;;;;;;;5069457;28;20085;-70
2021/09/22 13:41:38;;;;;;;5.97;3.78;;;;;;;;;;5069708;28;20494;-69
2021/09/22 13:44:06;;;;;;;5.15;3.70;;;;;;;;;;5080150;28;20096;-69
2021/09/22 13:46:33;;;;;;;5.88;3.58;;;;;;;;;;5069404;28;20476;-69
2021/09/22 13:48:59;;;;;;;7.38;3.72;;;;;;;;;;5069214;28;20563;-69
2021/09/22 13:51:25;;;;;;;5.65;3.95;;;;;;;;;;5069558;28;20095;-69
2021/09/22 13:53:52;;;;;;;7.13;3.60;;;;;;;;;;5069807;28;20078;-69
2021/09/22 13:56:17;;;;;;;6.82;3.60;;;;;;;;;;5069571;28;20029;-69
2021/09/22 13:58:44;;;;;;;5.30;3.38;;;;;;;;;;5071787;28;20028;-69
2021/09/22 14:01:10;;;;;;;5.45;3.33;;;;;;;;;;5071242;28;20371;-69
2021/09/22 14:03:36;;;;;;;3.90;2.72;;;;;;;;;;5092370;28;20387;-69
2021/09/22 14:06:03;;;;;;;5.22;2.58;;;;;;;;;;5093759;28;20220;-68
2021/09/22 14:08:29;;;;;;;4.03;2.70;;;;;;;;;;5091952;28;20028;-68
2021/09/22 14:10:56;;;;;;;4.00;2.55;;;;;;;;;;5073340;28;20023;-69
2021/09/22 14:13:22;;;;;;;3.88;2.47;;;;;;;;;;5075280;28;20089;-69
2021/09/22 14:15:49;;;;;;;4.35;2.90;;;;;;;;;;5094127;28;20031;-69
2021/09/22 14:18:16;;;;;;;5.35;2.28;;;;;;;;;;5085588;28;20052;-69
2021/09/22 14:20:44;;;;;;;3.28;2.20;;;;;;;;;;5073945;28;20559;-69
2021/09/22 14:23:12;;;;;;;4.18;2.40;;;;;;;;;;5081934;28;20074;-69
2021/09/22 14:25:43;;;;;;;3.75;2.20;;;;;;;;;;5087642;28;20407;-69
2021/09/22 14:28:10;;;;;;;8.40;2.40;;;;;;;;;;5069501;28;20037;-69
2021/09/22 14:30:37;;;;;;;3.05;2.03;;;;;;;;;;5080359;28;20051;-69
2021/09/22 14:33:06;;;;;;;3.15;2.20;;;;;;;;;;5076876;28;20115;-69
2021/09/22 14:35:31;;;;;;;3.92;2.28;;;;;;;;;;5076053;28;20028;-69
2021/09/22 14:37:57;;;;;;;3.63;1.95;;;;;;;;;;5073794;28;20037;-68
2021/09/22 14:40:22;;;;;;;2.90;1.80;;;;;;;;;;5073857;28;20078;-68
2021/09/22 14:42:50;;;;;;;3.53;1.92;;;;;;;;;;5061785;28;20480;-68
2021/09/22 14:45:18;;;;;;;3.78;2.00;;;;;;;;;;5074154;28;20427;-69